sensor_id;sensor_type;location;lat;lon;timestamp;P1;durP1;ratioP1;P2;durP2;ratioP2
48205;SDS011;33995;48.202;16.260;2022-12-07T00:02:31;10.40;;;9.30;;
48205;SDS011;33995;48.202;16.260;2022-12-07T00:05:00;10.87;;;9.77;;
48205;SDS011;33995;48.202;16.260;2022-12-07T00:07:35;10.63;;;9.63;;
48205;SDS011;33995;48.202;16.260;2022-12-07T00:10:03;9.60;;;8.60;;
48205;SDS011;33995;48.202;16.260;2022-12-07T00:12:34;9.87;;;8.87;;
48205;SDS011;33995;48.202;16.260;2022-12-07T00:15:05;10.80;;;9.70;;
48205;SDS011;33995;48.202;16.260;2022-12-07T00:17:45;10.57;;;9.47;;
48205;SDS011;33995;48.202;16.260;2022-12-07T00:20:15;10.37;;;9.27;;
48205;SDS011;33995;48.202;16.260;2022-12-07T00:22:49;10.97;;;9.60;;
48205;SDS011;33995;48.202;16.260;2022-12-07T00:25:21;11.57;;;9.83;;
48205;SDS011;33995;48.202;16.260;2022-12-07T00:27:54;11.43;;;10.20;;
48205;SDS011;33995;48.202;16.260;2022-12-07T00:30:24;11.47;;;10.27;;
48205;SDS011;33995;48.202;16.260;2022-12-07T00:32:54;11.43;;;10.33;;
48205;SDS011;33995;48.202;16.260;2022-12-07T00:35:38;11.17;;;10.07;;
48205;SDS011;33995;48.202;16.260;2022-12-07T00:38:12;12.33;;;11.03;;
48205;SDS011;33995;48.202;16.260;2022-12-07T00:40:42;13.07;;;11.73;;
48205;SDS011;33995;48.202;16.260;2022-12-07T00:43:11;13.30;;;11.33;;
48205;SDS011;33995;48.202;16.260;2022-12-07T00:45:40;13.93;;;12.53;;
48205;SDS011;33995;48.202;16.260;2022-12-07T00:48:12;13.20;;;11.80;;
48205;SDS011;33995;48.202;16.260;2022-12-07T00:50:44;13.20;;;11.90;;
48205;SDS011;33995;48.202;16.260;2022-12-07T00:53:16;14.30;;;12.77;;
48205;SDS011;33995;48.202;16.260;2022-12-07T00:55:46;14.33;;;12.83;;
48205;SDS011;33995;48.202;16.260;2022-12-07T00:58:15;14.60;;;12.97;;
48205;SDS011;33995;48.202;16.260;2022-12-07T01:00:48;14.03;;;12.53;;
48205;SDS011;33995;48.202;16.260;2022-12-07T01:03:23;14.10;;;12.60;;
48205;SDS011;33995;48.202;16.260;2022-12-07T01:05:52;14.73;;;13.13;;
48205;SDS011;33995;48.202;16.260;2022-12-07T01:08:24;14.03;;;12.53;;
48205;SDS011;33995;48.202;16.260;2022-12-07T01:11:04;14.47;;;12.97;;
48205;SDS011;33995;48.202;16.260;2022-12-07T01:13:34;14.70;;;13.10;;
48205;SDS011;33995;48.202;16.260;2022-12-07T01:16:03;13.87;;;12.47;;
48205;SDS011;33995;48.202;16.260;2022-12-07T01:18:41;14.97;;;13.37;;
48205;SDS011;33995;48.202;16.260;2022-12-07T01:21:16;15.00;;;13.40;;
48205;SDS011;33995;48.202;16.260;2022-12-07T01:23:49;14.57;;;13.03;;
48205;SDS011;33995;48.202;16.260;2022-12-07T01:26:19;14.53;;;13.03;;
48205;SDS011;33995;48.202;16.260;2022-12-07T01:28:52;15.30;;;13.70;;
48205;SDS011;33995;48.202;16.260;2022-12-07T01:31:26;14.23;;;12.73;;
48205;SDS011;33995;48.202;16.260;2022-12-07T01:33:57;15.00;;;13.47;;
48205;SDS011;33995;48.202;16.260;2022-12-07T01:36:29;15.50;;;13.90;;
48205;SDS011;33995;48.202;16.260;2022-12-07T01:39:02;15.60;;;13.90;;
48205;SDS011;33995;48.202;16.260;2022-12-07T01:41:37;15.70;;;14.10;;
48205;SDS011;33995;48.202;16.260;2022-12-07T01:44:25;15.80;;;14.10;;
48205;SDS011;33995;48.202;16.260;2022-12-07T01:47:03;16.57;;;14.37;;
48205;SDS011;33995;48.202;16.260;2022-12-07T01:49:43;16.00;;;14.03;;
48205;SDS011;33995;48.202;16.260;2022-12-07T01:52:27;16.30;;;14.60;;
48205;SDS011;33995;48.202;16.260;2022-12-07T01:55:00;15.80;;;13.77;;
48205;SDS011;33995;48.202;16.260;2022-12-07T01:57:38;16.13;;;14.43;;
48205;SDS011;33995;48.202;16.260;2022-12-07T02:00:24;15.23;;;13.63;;
48205;SDS011;33995;48.202;16.260;2022-12-07T02:02:57;17.60;;;14.83;;
48205;SDS011;33995;48.202;16.260;2022-12-07T02:05:35;16.53;;;14.60;;
48205;SDS011;33995;48.202;16.260;2022-12-07T02:08:12;15.57;;;13.97;;
48205;SDS011;33995;48.202;16.260;2022-12-07T02:10:43;16.10;;;14.40;;
48205;SDS011;33995;48.202;16.260;2022-12-07T02:13:15;15.93;;;13.73;;
48205;SDS011;33995;48.202;16.260;2022-12-07T02:27:41;15.10;;;13.43;;
48205;SDS011;33995;48.202;16.260;2022-12-07T02:30:31;13.73;;;12.30;;
48205;SDS011;33995;48.202;16.260;2022-12-07T02:33:05;13.73;;;12.23;;
48205;SDS011;33995;48.202;16.260;2022-12-07T02:38:51;14.03;;;12.37;;
48205;SDS011;33995;48.202;16.260;2022-12-07T02:41:40;14.30;;;12.80;;
48205;SDS011;33995;48.202;16.260;2022-12-07T02:44:17;14.93;;;12.43;;
48205;SDS011;33995;48.202;16.260;2022-12-07T02:47:03;13.87;;;12.33;;
48205;SDS011;33995;48.202;16.260;2022-12-07T02:49:39;14.57;;;12.43;;
48205;SDS011;33995;48.202;16.260;2022-12-07T02:52:19;13.97;;;12.47;;
48205;SDS011;33995;48.202;16.260;2022-12-07T02:54:50;14.30;;;12.60;;
48205;SDS011;33995;48.202;16.260;2022-12-07T03:00:25;14.97;;;12.90;;
48205;SDS011;33995;48.202;16.260;2022-12-07T03:06:06;14.77;;;12.80;;
48205;SDS011;33995;48.202;16.260;2022-12-07T03:11:55;14.63;;;12.47;;
48205;SDS011;33995;48.202;16.260;2022-12-07T03:14:36;13.47;;;12.03;;
48205;SDS011;33995;48.202;16.260;2022-12-07T03:17:19;14.87;;;12.60;;
48205;SDS011;33995;48.202;16.260;2022-12-07T03:19:58;14.03;;;12.53;;
48205;SDS011;33995;48.202;16.260;2022-12-07T03:22:43;13.33;;;11.93;;
48205;SDS011;33995;48.202;16.260;2022-12-07T03:25:15;15.37;;;13.23;;
48205;SDS011;33995;48.202;16.260;2022-12-07T03:28:00;13.33;;;11.63;;
48205;SDS011;33995;48.202;16.260;2022-12-07T03:33:48;13.27;;;10.97;;
48205;SDS011;33995;48.202;16.260;2022-12-07T03:36:37;13.47;;;12.00;;
48205;SDS011;33995;48.202;16.260;2022-12-07T03:39:30;13.27;;;11.27;;
48205;SDS011;33995;48.202;16.260;2022-12-07T03:42:10;13.67;;;11.40;;
48205;SDS011;33995;48.202;16.260;2022-12-07T03:44:41;12.67;;;11.27;;
48205;SDS011;33995;48.202;16.260;2022-12-07T03:47:25;12.40;;;11.10;;
48205;SDS011;33995;48.202;16.260;2022-12-07T03:50:21;12.70;;;11.00;;
48205;SDS011;33995;48.202;16.260;2022-12-07T03:52:55;12.90;;;11.23;;
48205;SDS011;33995;48.202;16.260;2022-12-07T03:55:35;12.00;;;10.70;;
48205;SDS011;33995;48.202;16.260;2022-12-07T03:58:19;11.53;;;10.33;;
48205;SDS011;33995;48.202;16.260;2022-12-07T04:00:50;11.53;;;10.33;;
48205;SDS011;33995;48.202;16.260;2022-12-07T04:03:21;11.90;;;10.60;;
48205;SDS011;33995;48.202;16.260;2022-12-07T04:05:54;12.20;;;10.70;;
48205;SDS011;33995;48.202;16.260;2022-12-07T04:08:23;12.10;;;10.77;;
48205;SDS011;33995;48.202;16.260;2022-12-07T04:10:52;11.90;;;10.23;;
48205;SDS011;33995;48.202;16.260;2022-12-07T04:13:23;13.07;;;10.93;;
48205;SDS011;33995;48.202;16.260;2022-12-07T04:15:55;11.47;;;10.23;;
48205;SDS011;33995;48.202;16.260;2022-12-07T04:18:26;12.07;;;10.73;;
48205;SDS011;33995;48.202;16.260;2022-12-07T04:21:00;11.30;;;10.10;;
48205;SDS011;33995;48.202;16.260;2022-12-07T04:23:28;11.77;;;10.57;;
48205;SDS011;33995;48.202;16.260;2022-12-07T04:26:00;11.07;;;9.87;;
48205;SDS011;33995;48.202;16.260;2022-12-07T04:28:42;11.40;;;10.23;;
48205;SDS011;33995;48.202;16.260;2022-12-07T04:31:11;10.93;;;9.83;;
48205;SDS011;33995;48.202;16.260;2022-12-07T04:33:41;11.30;;;10.10;;
48205;SDS011;33995;48.202;16.260;2022-12-07T04:36:11;11.40;;;10.10;;
48205;SDS011;33995;48.202;16.260;2022-12-07T04:38:44;11.27;;;10.03;;
48205;SDS011;33995;48.202;16.260;2022-12-07T04:41:20;11.23;;;9.80;;
48205;SDS011;33995;48.202;16.260;2022-12-07T04:43:58;11.07;;;9.70;;
48205;SDS011;33995;48.202;16.260;2022-12-07T04:46:32;12.30;;;10.43;;
48205;SDS011;33995;48.202;16.260;2022-12-07T04:49:05;12.13;;;10.60;;
48205;SDS011;33995;48.202;16.260;2022-12-07T04:51:37;11.17;;;9.90;;
48205;SDS011;33995;48.202;16.260;2022-12-07T04:54:06;10.73;;;9.63;;
48205;SDS011;33995;48.202;16.260;2022-12-07T04:56:50;10.87;;;9.73;;
48205;SDS011;33995;48.202;16.260;2022-12-07T04:59:34;11.03;;;9.37;;
48205;SDS011;33995;48.202;16.260;2022-12-07T05:02:11;11.87;;;10.20;;
48205;SDS011;33995;48.202;16.260;2022-12-07T05:04:42;10.57;;;9.47;;
48205;SDS011;33995;48.202;16.260;2022-12-07T05:07:16;10.17;;;9.07;;
48205;SDS011;33995;48.202;16.260;2022-12-07T05:09:48;11.10;;;9.50;;
48205;SDS011;33995;48.202;16.260;2022-12-07T05:12:20;10.33;;;9.17;;
48205;SDS011;33995;48.202;16.260;2022-12-07T05:14:54;10.37;;;8.90;;
48205;SDS011;33995;48.202;16.260;2022-12-07T05:17:23;9.93;;;8.87;;
48205;SDS011;33995;48.202;16.260;2022-12-07T05:19:56;10.60;;;9.50;;
48205;SDS011;33995;48.202;16.260;2022-12-07T05:22:30;9.67;;;8.67;;
48205;SDS011;33995;48.202;16.260;2022-12-07T05:25:04;10.13;;;8.80;;
48205;SDS011;33995;48.202;16.260;2022-12-07T05:27:34;9.60;;;8.60;;
48205;SDS011;33995;48.202;16.260;2022-12-07T05:30:06;10.23;;;9.13;;
48205;SDS011;33995;48.202;16.260;2022-12-07T05:32:36;10.20;;;9.07;;
48205;SDS011;33995;48.202;16.260;2022-12-07T05:35:06;10.13;;;8.67;;
48205;SDS011;33995;48.202;16.260;2022-12-07T05:37:40;9.57;;;8.53;;
48205;SDS011;33995;48.202;16.260;2022-12-07T05:40:10;10.30;;;9.23;;
48205;SDS011;33995;48.202;16.260;2022-12-07T05:42:43;9.73;;;8.73;;
48205;SDS011;33995;48.202;16.260;2022-12-07T05:45:26;10.37;;;8.83;;
48205;SDS011;33995;48.202;16.260;2022-12-07T05:47:57;10.27;;;8.77;;
48205;SDS011;33995;48.202;16.260;2022-12-07T05:50:28;9.90;;;7.90;;
48205;SDS011;33995;48.202;16.260;2022-12-07T05:53:02;8.67;;;7.77;;
48205;SDS011;33995;48.202;16.260;2022-12-07T05:55:31;9.07;;;7.77;;
48205;SDS011;33995;48.202;16.260;2022-12-07T05:58:04;8.93;;;7.67;;
48205;SDS011;33995;48.202;16.260;2022-12-07T06:00:55;8.60;;;7.70;;
48205;SDS011;33995;48.202;16.260;2022-12-07T06:03:24;8.57;;;7.40;;
48205;SDS011;33995;48.202;16.260;2022-12-07T06:05:58;10.07;;;7.90;;
48205;SDS011;33995;48.202;16.260;2022-12-07T06:08:28;8.97;;;7.93;;
48205;SDS011;33995;48.202;16.260;2022-12-07T06:11:02;8.63;;;7.60;;
48205;SDS011;33995;48.202;16.260;2022-12-07T06:13:53;9.50;;;8.50;;
48205;SDS011;33995;48.202;16.260;2022-12-07T06:16:23;9.03;;;7.53;;
48205;SDS011;33995;48.202;16.260;2022-12-07T06:19:05;8.93;;;7.73;;
48205;SDS011;33995;48.202;16.260;2022-12-07T06:21:49;9.93;;;8.20;;
48205;SDS011;33995;48.202;16.260;2022-12-07T06:24:22;9.63;;;7.83;;
48205;SDS011;33995;48.202;16.260;2022-12-07T06:27:05;8.93;;;7.93;;
48205;SDS011;33995;48.202;16.260;2022-12-07T06:29:49;9.10;;;8.00;;
48205;SDS011;33995;48.202;16.260;2022-12-07T06:32:17;9.10;;;7.80;;
48205;SDS011;33995;48.202;16.260;2022-12-07T06:34:51;10.80;;;8.10;;
48205;SDS011;33995;48.202;16.260;2022-12-07T06:37:35;9.87;;;7.93;;
48205;SDS011;33995;48.202;16.260;2022-12-07T06:40:05;8.30;;;7.50;;
48205;SDS011;33995;48.202;16.260;2022-12-07T06:42:39;8.23;;;7.37;;
48205;SDS011;33995;48.202;16.260;2022-12-07T06:45:12;9.33;;;7.43;;
48205;SDS011;33995;48.202;16.260;2022-12-07T06:47:44;7.83;;;7.00;;
48205;SDS011;33995;48.202;16.260;2022-12-07T06:50:23;8.10;;;7.23;;
48205;SDS011;33995;48.202;16.260;2022-12-07T06:52:52;8.27;;;7.37;;
48205;SDS011;33995;48.202;16.260;2022-12-07T06:55:23;8.77;;;7.30;;
48205;SDS011;33995;48.202;16.260;2022-12-07T06:57:52;8.33;;;7.17;;
48205;SDS011;33995;48.202;16.260;2022-12-07T07:00:26;8.67;;;7.07;;
48205;SDS011;33995;48.202;16.260;2022-12-07T07:02:58;9.13;;;7.37;;
48205;SDS011;33995;48.202;16.260;2022-12-07T07:05:30;8.77;;;7.70;;
48205;SDS011;33995;48.202;16.260;2022-12-07T07:08:14;8.73;;;7.83;;
48205;SDS011;33995;48.202;16.260;2022-12-07T07:10:50;8.17;;;7.37;;
48205;SDS011;33995;48.202;16.260;2022-12-07T07:13:24;8.57;;;6.87;;
48205;SDS011;33995;48.202;16.260;2022-12-07T07:16:05;7.60;;;6.80;;
48205;SDS011;33995;48.202;16.260;2022-12-07T07:18:37;7.60;;;6.87;;
48205;SDS011;33995;48.202;16.260;2022-12-07T07:21:07;7.67;;;6.87;;
48205;SDS011;33995;48.202;16.260;2022-12-07T07:23:53;8.73;;;6.80;;
48205;SDS011;33995;48.202;16.260;2022-12-07T07:26:24;8.17;;;7.10;;
48205;SDS011;33995;48.202;16.260;2022-12-07T07:28:57;7.90;;;7.10;;
48205;SDS011;33995;48.202;16.260;2022-12-07T07:31:30;8.80;;;6.43;;
48205;SDS011;33995;48.202;16.260;2022-12-07T07:34:06;7.30;;;6.60;;
48205;SDS011;33995;48.202;16.260;2022-12-07T07:36:39;7.93;;;6.50;;
48205;SDS011;33995;48.202;16.260;2022-12-07T07:39:19;7.40;;;6.60;;
48205;SDS011;33995;48.202;16.260;2022-12-07T07:41:54;7.13;;;6.43;;
48205;SDS011;33995;48.202;16.260;2022-12-07T07:44:26;7.43;;;6.67;;
48205;SDS011;33995;48.202;16.260;2022-12-07T07:47:02;7.10;;;6.40;;
48205;SDS011;33995;48.202;16.260;2022-12-07T07:49:32;8.20;;;6.80;;
48205;SDS011;33995;48.202;16.260;2022-12-07T07:52:15;9.03;;;6.93;;
48205;SDS011;33995;48.202;16.260;2022-12-07T07:54:48;7.60;;;6.90;;
48205;SDS011;33995;48.202;16.260;2022-12-07T07:57:20;7.80;;;7.00;;
48205;SDS011;33995;48.202;16.260;2022-12-07T07:59:50;8.87;;;6.87;;
48205;SDS011;33995;48.202;16.260;2022-12-07T08:02:22;8.00;;;7.20;;
48205;SDS011;33995;48.202;16.260;2022-12-07T08:04:55;7.50;;;6.67;;
48205;SDS011;33995;48.202;16.260;2022-12-07T08:07:25;7.60;;;6.90;;
48205;SDS011;33995;48.202;16.260;2022-12-07T08:10:10;7.83;;;7.03;;
48205;SDS011;33995;48.202;16.260;2022-12-07T08:12:43;7.27;;;6.57;;
48205;SDS011;33995;48.202;16.260;2022-12-07T08:15:31;8.77;;;7.07;;
48205;SDS011;33995;48.202;16.260;2022-12-07T08:18:03;8.00;;;7.00;;
48205;SDS011;33995;48.202;16.260;2022-12-07T08:20:34;7.67;;;6.97;;
48205;SDS011;33995;48.202;16.260;2022-12-07T08:23:13;7.23;;;6.50;;
48205;SDS011;33995;48.202;16.260;2022-12-07T08:25:59;8.27;;;7.20;;
48205;SDS011;33995;48.202;16.260;2022-12-07T08:28:36;7.77;;;6.93;;
48205;SDS011;33995;48.202;16.260;2022-12-07T08:31:13;7.80;;;6.80;;
48205;SDS011;33995;48.202;16.260;2022-12-07T08:33:45;8.23;;;6.77;;
48205;SDS011;33995;48.202;16.260;2022-12-07T08:36:27;7.57;;;6.63;;
48205;SDS011;33995;48.202;16.260;2022-12-07T08:39:01;7.13;;;6.53;;
48205;SDS011;33995;48.202;16.260;2022-12-07T08:41:51;7.10;;;6.40;;
48205;SDS011;33995;48.202;16.260;2022-12-07T08:44:21;6.90;;;6.30;;
48205;SDS011;33995;48.202;16.260;2022-12-07T08:46:56;6.97;;;5.93;;
48205;SDS011;33995;48.202;16.260;2022-12-07T08:49:43;7.50;;;6.70;;
48205;SDS011;33995;48.202;16.260;2022-12-07T08:52:16;7.07;;;6.37;;
48205;SDS011;33995;48.202;16.260;2022-12-07T08:55:01;7.30;;;6.60;;
48205;SDS011;33995;48.202;16.260;2022-12-07T08:57:32;7.20;;;6.50;;
48205;SDS011;33995;48.202;16.260;2022-12-07T09:00:05;7.73;;;6.93;;
48205;SDS011;33995;48.202;16.260;2022-12-07T09:02:49;8.17;;;6.60;;
48205;SDS011;33995;48.202;16.260;2022-12-07T09:05:19;7.47;;;6.77;;
48205;SDS011;33995;48.202;16.260;2022-12-07T09:07:56;7.50;;;6.80;;
48205;SDS011;33995;48.202;16.260;2022-12-07T09:10:33;7.77;;;7.00;;
48205;SDS011;33995;48.202;16.260;2022-12-07T09:13:06;7.60;;;6.90;;
48205;SDS011;33995;48.202;16.260;2022-12-07T09:15:48;7.03;;;6.43;;
48205;SDS011;33995;48.202;16.260;2022-12-07T09:18:17;9.27;;;7.23;;
48205;SDS011;33995;48.202;16.260;2022-12-07T09:20:50;8.93;;;6.87;;
48205;SDS011;33995;48.202;16.260;2022-12-07T09:23:22;7.87;;;6.63;;
48205;SDS011;33995;48.202;16.260;2022-12-07T09:25:59;8.10;;;7.30;;
48205;SDS011;33995;48.202;16.260;2022-12-07T09:28:38;8.57;;;7.77;;
48205;SDS011;33995;48.202;16.260;2022-12-07T09:31:17;8.33;;;7.53;;
48205;SDS011;33995;48.202;16.260;2022-12-07T09:33:58;8.23;;;7.43;;
48205;SDS011;33995;48.202;16.260;2022-12-07T09:36:33;8.20;;;7.40;;
48205;SDS011;33995;48.202;16.260;2022-12-07T09:39:18;9.40;;;7.40;;
48205;SDS011;33995;48.202;16.260;2022-12-07T09:41:56;8.97;;;8.07;;
48205;SDS011;33995;48.202;16.260;2022-12-07T09:44:39;9.20;;;8.00;;
48205;SDS011;33995;48.202;16.260;2022-12-07T09:47:13;8.93;;;8.13;;
48205;SDS011;33995;48.202;16.260;2022-12-07T09:49:47;9.20;;;8.07;;
48205;SDS011;33995;48.202;16.260;2022-12-07T09:52:20;9.37;;;8.40;;
48205;SDS011;33995;48.202;16.260;2022-12-07T09:54:55;9.80;;;8.20;;
48205;SDS011;33995;48.202;16.260;2022-12-07T09:57:31;9.13;;;8.23;;
48205;SDS011;33995;48.202;16.260;2022-12-07T10:00:15;8.70;;;7.80;;
48205;SDS011;33995;48.202;16.260;2022-12-07T10:02:59;8.83;;;8.00;;
48205;SDS011;33995;48.202;16.260;2022-12-07T10:05:46;8.87;;;7.97;;
48205;SDS011;33995;48.202;16.260;2022-12-07T10:08:24;8.73;;;7.83;;
48205;SDS011;33995;48.202;16.260;2022-12-07T10:10:57;9.00;;;8.10;;
48205;SDS011;33995;48.202;16.260;2022-12-07T10:13:39;8.10;;;7.27;;
48205;SDS011;33995;48.202;16.260;2022-12-07T10:19:23;7.13;;;6.43;;
48205;SDS011;33995;48.202;16.260;2022-12-07T10:22:11;7.33;;;6.60;;
48205;SDS011;33995;48.202;16.260;2022-12-07T10:25:07;7.47;;;6.77;;
48205;SDS011;33995;48.202;16.260;2022-12-07T10:27:39;7.50;;;6.67;;
48205;SDS011;33995;48.202;16.260;2022-12-07T10:30:12;8.07;;;7.27;;
48205;SDS011;33995;48.202;16.260;2022-12-07T10:32:48;8.00;;;7.20;;
48205;SDS011;33995;48.202;16.260;2022-12-07T10:35:30;7.47;;;6.77;;
48205;SDS011;33995;48.202;16.260;2022-12-07T10:38:00;7.60;;;6.80;;
48205;SDS011;33995;48.202;16.260;2022-12-07T10:40:44;7.53;;;6.77;;
48205;SDS011;33995;48.202;16.260;2022-12-07T10:43:18;8.10;;;7.33;;
48205;SDS011;33995;48.202;16.260;2022-12-07T10:55:03;7.97;;;6.73;;
48205;SDS011;33995;48.202;16.260;2022-12-07T11:01:18;8.47;;;7.27;;
48205;SDS011;33995;48.202;16.260;2022-12-07T11:12:58;8.40;;;7.60;;
48205;SDS011;33995;48.202;16.260;2022-12-07T11:27:57;8.77;;;6.87;;
48205;SDS011;33995;48.202;16.260;2022-12-07T11:31:28;7.23;;;6.53;;
48205;SDS011;33995;48.202;16.260;2022-12-07T11:34:06;7.00;;;6.30;;
48205;SDS011;33995;48.202;16.260;2022-12-07T11:36:50;8.13;;;6.27;;
48205;SDS011;33995;48.202;16.260;2022-12-07T11:39:31;6.43;;;5.83;;
48205;SDS011;33995;48.202;16.260;2022-12-07T11:42:06;5.93;;;5.33;;
48205;SDS011;33995;48.202;16.260;2022-12-07T11:51:16;6.70;;;6.10;;
48205;SDS011;33995;48.202;16.260;2022-12-07T11:54:11;6.63;;;6.03;;
48205;SDS011;33995;48.202;16.260;2022-12-07T11:56:56;6.80;;;6.10;;
48205;SDS011;33995;48.202;16.260;2022-12-07T11:59:39;6.90;;;6.27;;
48205;SDS011;33995;48.202;16.260;2022-12-07T12:02:16;7.13;;;6.43;;
48205;SDS011;33995;48.202;16.260;2022-12-07T12:05:07;7.23;;;6.60;;
48205;SDS011;33995;48.202;16.260;2022-12-07T12:08:36;7.40;;;6.60;;
48205;SDS011;33995;48.202;16.260;2022-12-07T12:26:24;8.83;;;7.80;;
48205;SDS011;33995;48.202;16.260;2022-12-07T12:29:06;8.50;;;7.70;;
48205;SDS011;33995;48.202;16.260;2022-12-07T12:32:18;8.57;;;7.70;;
48205;SDS011;33995;48.202;16.260;2022-12-07T12:35:00;10.53;;;9.37;;
48205;SDS011;33995;48.202;16.260;2022-12-07T12:37:51;15.43;;;13.93;;
48205;SDS011;33995;48.202;16.260;2022-12-07T12:42:52;17.97;;;16.07;;
48205;SDS011;33995;48.202;16.260;2022-12-07T12:45:30;10.67;;;9.57;;
48205;SDS011;33995;48.202;16.260;2022-12-07T12:48:00;11.10;;;8.47;;
48205;SDS011;33995;48.202;16.260;2022-12-07T12:50:50;9.40;;;8.50;;
48205;SDS011;33995;48.202;16.260;2022-12-07T12:54:12;8.30;;;7.50;;
48205;SDS011;33995;48.202;16.260;2022-12-07T12:59:59;14.07;;;12.67;;
48205;SDS011;33995;48.202;16.260;2022-12-07T13:02:36;8.67;;;7.77;;
48205;SDS011;33995;48.202;16.260;2022-12-07T13:08:01;9.67;;;8.40;;
48205;SDS011;33995;48.202;16.260;2022-12-07T13:10:45;8.13;;;7.33;;
48205;SDS011;33995;48.202;16.260;2022-12-07T13:15:53;7.67;;;6.90;;
48205;SDS011;33995;48.202;16.260;2022-12-07T13:18:39;7.63;;;6.90;;
48205;SDS011;33995;48.202;16.260;2022-12-07T13:24:10;8.80;;;7.30;;
48205;SDS011;33995;48.202;16.260;2022-12-07T13:26:44;8.43;;;7.53;;
48205;SDS011;33995;48.202;16.260;2022-12-07T13:29:19;8.73;;;7.90;;
48205;SDS011;33995;48.202;16.260;2022-12-07T13:32:00;8.40;;;7.67;;
48205;SDS011;33995;48.202;16.260;2022-12-07T13:34:34;7.53;;;6.83;;
48205;SDS011;33995;48.202;16.260;2022-12-07T13:40:18;9.20;;;7.80;;
48205;SDS011;33995;48.202;16.260;2022-12-07T13:42:57;8.70;;;7.90;;
48205;SDS011;33995;48.202;16.260;2022-12-07T13:45:33;8.40;;;7.60;;
48205;SDS011;33995;48.202;16.260;2022-12-07T13:48:36;7.90;;;7.20;;
48205;SDS011;33995;48.202;16.260;2022-12-07T13:51:23;8.33;;;7.47;;
48205;SDS011;33995;48.202;16.260;2022-12-07T13:54:13;9.30;;;8.40;;
48205;SDS011;33995;48.202;16.260;2022-12-07T13:56:51;8.30;;;7.50;;
48205;SDS011;33995;48.202;16.260;2022-12-07T13:59:27;8.13;;;7.43;;
48205;SDS011;33995;48.202;16.260;2022-12-07T14:05:36;8.80;;;8.00;;
48205;SDS011;33995;48.202;16.260;2022-12-07T14:13:35;9.03;;;8.13;;
48205;SDS011;33995;48.202;16.260;2022-12-07T14:16:14;10.03;;;9.03;;
48205;SDS011;33995;48.202;16.260;2022-12-07T14:18:46;9.80;;;8.87;;
48205;SDS011;33995;48.202;16.260;2022-12-07T14:21:16;10.33;;;8.20;;
48205;SDS011;33995;48.202;16.260;2022-12-07T14:24:07;9.30;;;8.40;;
48205;SDS011;33995;48.202;16.260;2022-12-07T14:26:47;9.73;;;8.73;;
48205;SDS011;33995;48.202;16.260;2022-12-07T14:29:30;10.37;;;9.17;;
48205;SDS011;33995;48.202;16.260;2022-12-07T14:32:24;9.73;;;8.77;;
48205;SDS011;33995;48.202;16.260;2022-12-07T14:35:12;9.80;;;8.90;;
48205;SDS011;33995;48.202;16.260;2022-12-07T14:37:53;11.43;;;8.87;;
48205;SDS011;33995;48.202;16.260;2022-12-07T14:40:26;8.73;;;7.83;;
48205;SDS011;33995;48.202;16.260;2022-12-07T14:43:10;10.50;;;9.23;;
48205;SDS011;33995;48.202;16.260;2022-12-07T14:45:41;9.60;;;8.70;;
48205;SDS011;33995;48.202;16.260;2022-12-07T14:48:16;9.90;;;8.90;;
48205;SDS011;33995;48.202;16.260;2022-12-07T14:51:04;9.70;;;8.70;;
48205;SDS011;33995;48.202;16.260;2022-12-07T14:53:56;9.77;;;8.77;;
48205;SDS011;33995;48.202;16.260;2022-12-07T14:56:25;10.33;;;9.33;;
48205;SDS011;33995;48.202;16.260;2022-12-07T14:58:56;10.33;;;9.23;;
48205;SDS011;33995;48.202;16.260;2022-12-07T15:01:28;9.20;;;8.30;;
48205;SDS011;33995;48.202;16.260;2022-12-07T15:04:03;12.60;;;11.07;;
48205;SDS011;33995;48.202;16.260;2022-12-07T15:06:35;12.20;;;11.07;;
48205;SDS011;33995;48.202;16.260;2022-12-07T15:09:08;10.47;;;9.27;;
48205;SDS011;33995;48.202;16.260;2022-12-07T15:11:36;11.53;;;10.23;;
48205;SDS011;33995;48.202;16.260;2022-12-07T15:14:10;10.47;;;9.03;;
48205;SDS011;33995;48.202;16.260;2022-12-07T15:16:41;11.40;;;10.20;;
48205;SDS011;33995;48.202;16.260;2022-12-07T15:19:33;11.13;;;10.03;;
48205;SDS011;33995;48.202;16.260;2022-12-07T15:22:04;10.50;;;9.37;;
48205;SDS011;33995;48.202;16.260;2022-12-07T15:24:33;10.10;;;9.10;;
48205;SDS011;33995;48.202;16.260;2022-12-07T15:27:07;11.13;;;9.43;;
48205;SDS011;33995;48.202;16.260;2022-12-07T15:29:49;10.20;;;9.20;;
48205;SDS011;33995;48.202;16.260;2022-12-07T15:32:19;10.27;;;9.27;;
48205;SDS011;33995;48.202;16.260;2022-12-07T15:35:00;10.33;;;9.23;;
48205;SDS011;33995;48.202;16.260;2022-12-07T15:37:32;11.47;;;10.27;;
48205;SDS011;33995;48.202;16.260;2022-12-07T15:40:09;11.97;;;10.13;;
48205;SDS011;33995;48.202;16.260;2022-12-07T15:42:41;11.55;;;10.20;;
48205;SDS011;33995;48.202;16.260;2022-12-07T15:45:15;10.93;;;9.83;;
48205;SDS011;33995;48.202;16.260;2022-12-07T15:47:49;13.53;;;12.17;;
48205;SDS011;33995;48.202;16.260;2022-12-07T15:50:42;11.80;;;10.17;;
48205;SDS011;33995;48.202;16.260;2022-12-07T15:53:20;12.27;;;10.97;;
48205;SDS011;33995;48.202;16.260;2022-12-07T15:55:55;15.13;;;12.40;;
48205;SDS011;33995;48.202;16.260;2022-12-07T15:58:27;16.50;;;14.80;;
48205;SDS011;33995;48.202;16.260;2022-12-07T16:01:16;13.77;;;12.37;;
48205;SDS011;33995;48.202;16.260;2022-12-07T16:03:47;13.43;;;12.00;;
48205;SDS011;33995;48.202;16.260;2022-12-07T16:06:18;19.87;;;18.00;;
48205;SDS011;33995;48.202;16.260;2022-12-07T16:08:50;15.23;;;13.63;;
48205;SDS011;33995;48.202;16.260;2022-12-07T16:11:24;17.20;;;15.47;;
48205;SDS011;33995;48.202;16.260;2022-12-07T16:13:52;17.63;;;15.93;;
48205;SDS011;33995;48.202;16.260;2022-12-07T16:16:31;18.23;;;16.33;;
48205;SDS011;33995;48.202;16.260;2022-12-07T16:19:03;13.40;;;12.00;;
48205;SDS011;33995;48.202;16.260;2022-12-07T16:21:40;11.83;;;10.63;;
48205;SDS011;33995;48.202;16.260;2022-12-07T16:24:32;13.70;;;12.30;;
48205;SDS011;33995;48.202;16.260;2022-12-07T16:27:00;17.73;;;14.33;;
48205;SDS011;33995;48.202;16.260;2022-12-07T16:29:31;15.20;;;13.70;;
48205;SDS011;33995;48.202;16.260;2022-12-07T16:32:02;15.70;;;14.00;;
48205;SDS011;33995;48.202;16.260;2022-12-07T16:34:43;15.77;;;12.57;;
48205;SDS011;33995;48.202;16.260;2022-12-07T16:37:26;14.57;;;11.30;;
48205;SDS011;33995;48.202;16.260;2022-12-07T16:39:55;12.60;;;11.10;;
48205;SDS011;33995;48.202;16.260;2022-12-07T16:42:24;12.20;;;11.00;;
48205;SDS011;33995;48.202;16.260;2022-12-07T16:44:55;12.50;;;11.20;;
48205;SDS011;33995;48.202;16.260;2022-12-07T16:47:26;12.63;;;11.33;;
48205;SDS011;33995;48.202;16.260;2022-12-07T16:50:04;13.07;;;11.17;;
48205;SDS011;33995;48.202;16.260;2022-12-07T16:52:33;15.40;;;11.90;;
48205;SDS011;33995;48.202;16.260;2022-12-07T16:55:07;12.07;;;10.77;;
48205;SDS011;33995;48.202;16.260;2022-12-07T16:57:43;12.27;;;10.97;;
48205;SDS011;33995;48.202;16.260;2022-12-07T17:00:14;13.47;;;11.40;;
48205;SDS011;33995;48.202;16.260;2022-12-07T17:02:50;15.40;;;12.30;;
48205;SDS011;33995;48.202;16.260;2022-12-07T17:05:37;14.98;;;12.80;;
48205;SDS011;33995;48.202;16.260;2022-12-07T17:08:13;15.20;;;12.70;;
48205;SDS011;33995;48.202;16.260;2022-12-07T17:10:55;19.97;;;16.20;;
48205;SDS011;33995;48.202;16.260;2022-12-07T17:13:25;24.17;;;19.83;;